Time;durP1;ratioP1;P1;durP2;ratioP2;P2;SDS_P1;SDS_P2;PMS_P1;PMS_P2;Temp;Humidity;BMP_temperature;BMP_pressure;BME280_temperature;BME280_humidity;BME280_pressure;Samples;Min_cycle;Max_cycle;Signal;HPM_P1;HPM_P2
2023/06/03 00:00:52;;;;;;;3.00;1.00;;;17.20;62.40;;;;;;5027038;28;20034;-64
2023/06/03 00:03:18;;;;;;;1.70;0.80;;;17.10;62.40;;;;;;5029066;28;20038;-64
2023/06/03 00:05:44;;;;;;;2.88;0.95;;;17.10;62.40;;;;;;5028073;28;20091;-64
2023/06/03 00:08:10;;;;;;;2.15;1.08;;;17.10;62.40;;;;;;5018984;28;20026;-64
2023/06/03 00:10:35;;;;;;;4.55;1.02;;;17.10;62.50;;;;;;5028988;28;20029;-64
2023/06/03 00:13:01;;;;;;;1.05;0.75;;;17.00;62.50;;;;;;5026845;28;20037;-64
2023/06/03 00:15:27;;;;;;;0.80;0.75;;;17.00;62.70;;;;;;5027165;28;20115;-64
2023/06/03 00:17:52;;;;;;;1.48;0.77;;;16.90;62.70;;;;;;5026363;28;20030;-63
2023/06/03 00:20:18;;;;;;;1.17;0.98;;;16.90;62.80;;;;;;5026639;28;20033;-63
2023/06/03 00:22:45;;;;;;;1.50;1.00;;;16.80;63.20;;;;;;5022143;28;20026;-63
2023/06/03 00:25:11;;;;;;;1.83;1.15;;;16.80;63.00;;;;;;5027046;28;20476;-62
2023/06/03 00:27:38;;;;;;;3.38;1.20;;;16.70;63.10;;;;;;5027181;28;20484;-62
2023/06/03 00:30:06;;;;;;;1.42;0.88;;;16.70;63.80;;;;;;5033785;28;20021;-62
2023/06/03 00:32:32;;;;;;;3.65;1.35;;;16.60;63.20;;;;;;5028597;28;20107;-62
2023/06/03 00:34:58;;;;;;;1.83;0.90;;;16.60;63.30;;;;;;5032335;28;20044;-64
2023/06/03 00:37:24;;;;;;;2.38;1.02;;;16.50;63.30;;;;;;5034728;28;20037;-64
2023/06/03 00:39:49;;;;;;;1.17;0.80;;;16.50;63.40;;;;;;5029205;28;20469;-63
2023/06/03 00:42:15;;;;;;;1.90;1.00;;;16.40;63.50;;;;;;5029021;28;20071;-64
2023/06/03 00:44:41;;;;;;;2.22;1.05;;;16.40;63.50;;;;;;5030551;28;20541;-64
2023/06/03 00:47:08;;;;;;;1.92;0.73;;;16.40;63.60;;;;;;5023767;28;21335;-63
2023/06/03 00:49:34;;;;;;;1.83;1.50;;;16.30;63.60;;;;;;5039286;28;20127;-64
2023/06/03 00:52:01;;;;;;;1.10;0.80;;;16.30;63.60;;;;;;5036227;28;20025;-64
2023/06/03 00:54:27;;;;;;;0.93;0.70;;;16.30;63.50;;;;;;5038151;28;20091;-64
2023/06/03 00:56:54;;;;;;;0.85;0.65;;;16.40;63.50;;;;;;5034302;28;20022;-64
2023/06/03 00:59:20;;;;;;;1.50;0.63;;;16.40;63.40;;;;;;5035490;28;20029;-63
2023/06/03 01:01:46;;;;;;;1.88;1.08;;;16.40;63.30;;;;;;5033844;28;20029;-63
2023/06/03 01:04:16;;;;;;;1.00;0.60;;;16.40;63.20;;;;;;5035743;28;20112;-64
2023/06/03 01:07:00;;;;;;;1.10;0.77;;;16.30;63.10;;;;;;5034472;28;20032;-64
2023/06/03 01:09:39;;;;;;;1.23;1.08;;;16.30;63.00;;;;;;5022099;28;20038;-64
2023/06/03 01:12:34;;;;;;;1.75;1.08;;;16.30;63.00;;;;;;5033707;28;20072;-64
2023/06/03 01:15:08;;;;;;;1.63;0.70;;;16.30;62.80;;;;;;5024599;28;20130;-63
2023/06/03 01:17:39;;;;;;;1.38;0.90;;;16.30;62.80;;;;;;5032958;28;20021;-64
2023/06/03 01:20:10;;;;;;;1.20;1.10;;;16.30;62.80;;;;;;5031107;28;20039;-64
2023/06/03 01:22:41;;;;;;;1.80;0.90;;;16.30;62.90;;;;;;5032520;28;20503;-63
2023/06/03 01:25:08;;;;;;;1.42;0.93;;;16.20;62.90;;;;;;5028217;28;20060;-63
2023/06/03 01:27:36;;;;;;;0.95;0.80;;;16.20;62.80;;;;;;5031535;28;20392;-63
2023/06/03 01:30:04;;;;;;;2.40;1.15;;;16.10;62.80;;;;;;5036432;28;20041;-63
2023/06/03 01:32:30;;;;;;;1.10;1.00;;;16.10;62.80;;;;;;5027949;28;20137;-63
2023/06/03 01:34:56;;;;;;;2.35;0.80;;;16.10;62.70;;;;;;5034087;28;20480;-63
2023/06/03 01:37:22;;;;;;;1.33;0.77;;;16.10;62.70;;;;;;5031972;28;20473;-63
2023/06/03 01:39:48;;;;;;;1.83;1.13;;;16.10;62.70;;;;;;5030630;28;20113;-63
2023/06/03 01:42:14;;;;;;;0.57;0.57;;;16.10;62.70;;;;;;5032123;28;20061;-63
2023/06/03 01:44:40;;;;;;;0.50;0.50;;;16.00;62.60;;;;;;5029070;28;20123;-63
2023/06/03 01:47:07;;;;;;;1.55;1.05;;;16.00;62.60;;;;;;5028409;28;20029;-63
2023/06/03 01:49:33;;;;;;;1.88;0.70;;;16.00;62.50;;;;;;5008860;28;20026;-62
2023/06/03 01:51:59;;;;;;;1.30;0.70;;;16.00;62.50;;;;;;5030656;28;20087;-61
2023/06/03 01:54:26;;;;;;;0.93;0.77;;;16.00;62.50;;;;;;5030607;28;20477;-61
2023/06/03 01:56:53;;;;;;;0.98;0.60;;;15.90;62.50;;;;;;5030655;28;20056;-62
2023/06/03 01:59:23;;;;;;;2.50;1.25;;;15.90;62.40;;;;;;5025039;28;20112;-62
2023/06/03 02:01:57;;;;;;;1.65;0.43;;;15.90;62.30;;;;;;5027555;28;20354;-61
2023/06/03 02:04:23;;;;;;;2.15;0.80;;;15.90;62.30;;;;;;5024589;28;20061;-62
2023/06/03 02:06:53;;;;;;;1.48;0.88;;;15.80;62.20;;;;;;5031735;28;20041;-62
2023/06/03 02:09:21;;;;;;;1.10;1.00;;;15.90;62.30;;;;;;5038821;28;20064;-62
2023/06/03 02:11:47;;;;;;;0.68;0.57;;;15.80;62.20;;;;;;5031436;28;20029;-63
2023/06/03 02:14:14;;;;;;;0.93;0.77;;;15.80;62.20;;;;;;5038275;28;20116;-62
2023/06/03 02:16:40;;;;;;;2.33;0.80;;;15.80;62.10;;;;;;5037315;28;20088;-62
2023/06/03 02:19:20;;;;;;;0.80;0.52;;;15.80;62.00;;;;;;5033208;28;20108;-62
2023/06/03 02:21:47;;;;;;;0.60;0.40;;;15.80;61.90;;;;;;5031015;28;20483;-62
2023/06/03 02:24:16;;;;;;;0.63;0.47;;;15.70;61.80;;;;;;5027040;28;20390;-63
2023/06/03 02:26:49;;;;;;;0.63;0.60;;;15.70;61.80;;;;;;5030683;28;20029;-63
2023/06/03 02:29:19;;;;;;;0.98;0.70;;;15.70;61.70;;;;;;5030952;28;20405;-63
2023/06/03 02:31:46;;;;;;;1.00;0.60;;;15.70;61.60;;;;;;5035021;28;20205;-63
2023/06/03 02:34:11;;;;;;;0.47;0.35;;;15.70;61.60;;;;;;5024493;28;20137;-63
2023/06/03 02:36:40;;;;;;;1.58;0.68;;;15.60;61.50;;;;;;5025313;28;20126;-63
2023/06/03 02:39:07;;;;;;;0.50;0.50;;;15.60;61.50;;;;;;5025225;28;20085;-63
2023/06/03 02:41:33;;;;;;;1.17;0.60;;;15.60;61.50;;;;;;5029136;28;20060;-63
2023/06/03 02:43:59;;;;;;;0.47;0.40;;;15.60;61.40;;;;;;5030031;28;20033;-63
2023/06/03 02:46:25;;;;;;;0.35;0.35;;;15.50;61.30;;;;;;5026293;28;20026;-64
2023/06/03 02:48:50;;;;;;;1.50;0.70;;;15.50;61.40;;;;;;5021638;28;20056;-64
2023/06/03 02:51:16;;;;;;;2.72;0.80;;;15.50;61.40;;;;;;5024691;28;20022;-64
2023/06/03 02:53:42;;;;;;;0.88;0.82;;;15.50;61.50;;;;;;5030873;28;20026;-63
2023/06/03 02:56:08;;;;;;;0.90;0.60;;;15.40;61.30;;;;;;5024461;28;20030;-63
2023/06/03 02:58:33;;;;;;;0.50;0.45;;;15.40;61.30;;;;;;5028029;28;20124;-63
2023/06/03 03:00:59;;;;;;;1.02;0.57;;;15.30;61.20;;;;;;5030861;28;20034;-63
2023/06/03 03:03:25;;;;;;;0.73;0.73;;;15.30;61.20;;;;;;5031493;28;20501;-63
2023/06/03 03:05:51;;;;;;;0.80;0.80;;;15.30;61.30;;;;;;5006050;28;20036;-63
2023/06/03 03:08:17;;;;;;;0.60;0.60;;;15.30;61.40;;;;;;5024590;28;20033;-63
2023/06/03 03:10:43;;;;;;;1.23;0.68;;;15.20;61.50;;;;;;5019648;28;20108;-63
2023/06/03 03:13:09;;;;;;;0.75;0.50;;;15.20;61.50;;;;;;5028686;28;20041;-64
2023/06/03 03:15:34;;;;;;;1.25;0.60;;;15.10;61.50;;;;;;5033757;28;20025;-64
2023/06/03 03:18:00;;;;;;;0.88;0.80;;;15.10;61.60;;;;;;5030216;28;20033;-64
2023/06/03 03:20:29;;;;;;;1.13;0.60;;;15.00;61.60;;;;;;5032760;28;20025;-63
2023/06/03 03:22:54;;;;;;;0.63;0.50;;;15.00;61.60;;;;;;5026995;28;20025;-62
2023/06/03 03:25:21;;;;;;;0.88;0.65;;;15.00;61.60;;;;;;5034155;28;20040;-62
2023/06/03 03:27:47;;;;;;;0.80;0.75;;;15.00;61.60;;;;;;5028570;28;20045;-62
2023/06/03 03:30:13;;;;;;;1.20;0.60;;;14.90;61.50;;;;;;5027697;28;20407;-61
2023/06/03 03:32:39;;;;;;;0.85;0.50;;;14.90;61.40;;;;;;5027943;28;20057;-61
2023/06/03 03:35:16;;;;;;;0.88;0.73;;;14.90;61.30;;;;;;5030131;28;20095;-63
2023/06/03 03:37:42;;;;;;;0.95;0.70;;;14.90;61.30;;;;;;5028758;28;20455;-63
2023/06/03 03:40:21;;;;;;;0.95;0.52;;;14.90;61.40;;;;;;5035816;28;20032;-63
2023/06/03 03:42:52;;;;;;;0.70;0.70;;;14.90;61.40;;;;;;5034759;28;20392;-63
2023/06/03 03:45:19;;;;;;;0.75;0.73;;;14.90;61.40;;;;;;5036590;28;20112;-63
2023/06/03 03:47:49;;;;;;;0.98;0.50;;;14.80;61.40;;;;;;5021837;28;20025;-64
2023/06/03 03:50:30;;;;;;;1.00;0.70;;;14.80;61.40;;;;;;5027552;28;20033;-63
2023/06/03 03:53:01;;;;;;;0.85;0.60;;;14.80;61.30;;;;;;5025040;28;20034;-63
2023/06/03 03:55:27;;;;;;;0.50;0.43;;;14.80;61.30;;;;;;5030342;28;20095;-64
2023/06/03 03:57:52;;;;;;;1.52;0.80;;;14.80;61.20;;;;;;5027586;28;20033;-63
2023/06/03 04:00:21;;;;;;;0.47;0.47;;;14.80;61.10;;;;;;5028872;28;20053;-64
2023/06/03 04:02:49;;;;;;;1.52;0.45;;;14.80;60.90;;;;;;5026856;28;20033;-63
2023/06/03 04:05:17;;;;;;;0.70;0.50;;;14.80;60.80;;;;;;5026624;28;20034;-62
2023/06/03 04:07:46;;;;;;;0.52;0.52;;;14.80;60.80;;;;;;5027357;28;20369;-62
2023/06/03 04:10:12;;;;;;;1.23;0.82;;;14.80;60.70;;;;;;5025373;28;20103;-62
2023/06/03 04:12:38;;;;;;;0.30;0.30;;;14.90;60.60;;;;;;5027190;28;20088;-62
2023/06/03 04:15:04;;;;;;;0.45;0.30;;;14.80;60.30;;;;;;5031999;28;20029;-62
2023/06/03 04:17:36;;;;;;;3.33;0.85;;;14.90;60.20;;;;;;5027459;28;20477;-62
2023/06/03 04:20:05;;;;;;;1.35;0.70;;;14.90;60.10;;;;;;5034972;28;20095;-62
2023/06/03 04:22:32;;;;;;;0.65;0.40;;;14.90;59.90;;;;;;5033216;28;20083;-62
2023/06/03 04:25:00;;;;;;;1.67;0.68;;;14.90;59.90;;;;;;5039408;28;20033;-62
2023/06/03 04:27:26;;;;;;;0.90;0.47;;;15.00;59.80;;;;;;5034387;28;20091;-62
2023/06/03 04:29:52;;;;;;;0.70;0.47;;;15.00;59.50;;;;;;5034525;28;20029;-62
2023/06/03 04:32:18;;;;;;;1.90;0.80;;;15.10;59.40;;;;;;5033335;28;20076;-62
2023/06/03 04:34:51;;;;;;;0.32;0.32;;;15.10;59.10;;;;;;5038102;28;20033;-62
2023/06/03 04:37:18;;;;;;;0.63;0.63;;;15.20;58.90;;;;;;5031544;28;20025;-62
2023/06/03 04:39:44;;;;;;;2.58;0.50;;;15.20;58.80;;;;;;5032700;28;20163;-62
2023/06/03 04:42:10;;;;;;;0.60;0.30;;;15.20;58.70;;;;;;5029985;28;20033;-62
2023/06/03 04:44:40;;;;;;;0.30;0.30;;;15.20;58.50;;;;;;5034040;28;20036;-62
2023/06/03 04:47:10;;;;;;;0.40;0.30;;;15.20;58.50;;;;;;5019916;28;20473;-63
2023/06/03 04:49:39;;;;;;;1.08;0.50;;;15.30;58.30;;;;;;5032175;28;20025;-62
2023/06/03 04:52:10;;;;;;;0.43;0.40;;;15.30;58.10;;;;;;5021974;28;20512;-62
2023/06/03 04:54:36;;;;;;;0.40;0.40;;;15.40;57.90;;;;;;5030562;28;20477;-62
2023/06/03 04:57:02;;;;;;;1.17;0.43;;;15.40;57.70;;;;;;5033730;28;20591;-62
2023/06/03 04:59:28;;;;;;;0.77;0.50;;;15.50;57.50;;;;;;5032925;28;20596;-62
2023/06/03 05:01:54;;;;;;;0.30;0.30;;;15.50;57.50;;;;;;5030606;28;20021;-63
2023/06/03 05:04:22;;;;;;;0.98;0.40;;;15.50;57.50;;;;;;5026171;28;20100;-62
2023/06/03 05:06:51;;;;;;;1.80;0.40;;;15.60;57.40;;;;;;5030074;28;20462;-62
2023/06/03 05:09:17;;;;;;;0.88;0.52;;;15.60;57.40;;;;;;5027728;28;20091;-63
2023/06/03 05:11:43;;;;;;;1.58;0.57;;;15.60;57.10;;;;;;5030256;28;20535;-63
2023/06/03 05:14:09;;;;;;;1.45;0.45;;;15.70;57.10;;;;;;5029484;28;20376;-63
2023/06/03 05:16:36;;;;;;;0.20;0.20;;;15.70;56.90;;;;;;5029435;28;20025;-63
2023/06/03 05:19:01;;;;;;;0.63;0.38;;;15.70;56.80;;;;;;5029919;28;20084;-63
2023/06/03 05:21:27;;;;;;;0.85;0.55;;;15.70;56.70;;;;;;5029504;28;20060;-63
2023/06/03 05:23:53;;;;;;;0.80;0.30;;;15.70;56.60;;;;;;5023688;28;20026;-63
2023/06/03 05:26:18;;;;;;;1.33;0.50;;;15.80;56.50;;;;;;5013650;28;20083;-63
2023/06/03 05:28:44;;;;;;;0.55;0.50;;;15.90;56.40;;;;;;5029394;28;20017;-62
2023/06/03 05:31:10;;;;;;;0.35;0.30;;;15.90;56.30;;;;;;5030354;28;20029;-63
2023/06/03 05:33:36;;;;;;;1.02;0.20;;;15.90;56.20;;;;;;5026951;28;20152;-63
2023/06/03 05:36:02;;;;;;;0.35;0.30;;;16.00;56.10;;;;;;5028962;28;20029;-63
2023/06/03 05:38:30;;;;;;;0.50;0.50;;;16.00;56.00;;;;;;5029156;28;20041;-63
2023/06/03 05:40:56;;;;;;;0.80;0.52;;;16.10;55.90;;;;;;5025090;28;20049;-63
2023/06/03 05:43:23;;;;;;;2.30;0.40;;;16.20;55.70;;;;;;5019156;28;20160;-63
2023/06/03 05:45:49;;;;;;;0.43;0.30;;;16.20;55.50;;;;;;5028180;28;20515;-64
2023/06/03 05:48:15;;;;;;;1.45;0.73;;;16.20;55.40;;;;;;5027599;28;20535;-64
2023/06/03 05:50:52;;;;;;;0.30;0.20;;;16.30;55.30;;;;;;5032375;28;20021;-64
2023/06/03 05:53:25;;;;;;;0.30;0.30;;;16.30;55.20;;;;;;5023430;28;20033;-64
2023/06/03 05:55:51;;;;;;;0.30;0.30;;;16.40;54.90;;;;;;5026776;28;20044;-64
2023/06/03 05:58:18;;;;;;;1.88;0.30;;;16.40;54.80;;;;;;5029798;28;20026;-64
2023/06/03 06:00:44;;;;;;;0.25;0.25;;;16.50;54.60;;;;;;5032257;28;20021;-64
2023/06/03 06:03:10;;;;;;;0.30;0.30;;;16.60;54.40;;;;;;5037259;28;20052;-63
2023/06/03 06:05:35;;;;;;;0.47;0.35;;;16.70;54.30;;;;;;5031278;28;20033;-63
2023/06/03 06:08:01;;;;;;;0.30;0.25;;;16.70;54.10;;;;;;5031472;28;20037;-64
2023/06/03 06:10:27;;;;;;;0.55;0.30;;;16.80;54.10;;;;;;5027968;28;20022;-64
2023/06/03 06:12:52;;;;;;;0.30;0.30;;;16.80;53.90;;;;;;5032140;28;20021;-64
2023/06/03 06:15:18;;;;;;;0.45;0.45;;;16.90;53.70;;;;;;5028385;28;20052;-64
2023/06/03 06:17:44;;;;;;;0.20;0.20;;;16.90;53.60;;;;;;5029914;28;20033;-64
2023/06/03 06:20:11;;;;;;;0.98;0.43;;;17.00;53.50;;;;;;5026506;28;20028;-64
2023/06/03 06:22:37;;;;;;;0.63;0.30;;;17.10;53.50;;;;;;5031408;28;20021;-64
2023/06/03 06:25:06;;;;;;;0.30;0.30;;;17.20;53.30;;;;;;5029533;28;20041;-62
2023/06/03 06:27:33;;;;;;;0.65;0.50;;;17.20;52.90;;;;;;5026335;28;20365;-63
2023/06/03 06:29:59;;;;;;;0.90;0.50;;;17.30;52.30;;;;;;5026272;28;20480;-63
2023/06/03 06:32:25;;;;;;;1.02;0.30;;;17.30;52.40;;;;;;5029307;28;20469;-63
2023/06/03 06:34:52;;;;;;;0.30;0.30;;;17.40;52.20;;;;;;5027049;28;20029;-63
2023/06/03 06:37:19;;;;;;;1.15;0.52;;;17.40;52.10;;;;;;5023352;28;20030;-63
2023/06/03 06:39:52;;;;;;;1.33;0.73;;;17.40;52.10;;;;;;5024263;28;20417;-63
2023/06/03 06:42:31;;;;;;;0.40;0.40;;;17.50;52.00;;;;;;5025769;28;20113;-66
2023/06/03 06:44:57;;;;;;;0.22;0.22;;;17.50;51.80;;;;;;5025674;28;20029;-64
2023/06/03 06:47:30;;;;;;;1.30;0.45;;;17.60;51.70;;;;;;5025961;28;20042;-65
2023/06/03 06:49:57;;;;;;;1.20;0.75;;;17.70;51.60;;;;;;5028251;28;20503;-67
2023/06/03 06:52:24;;;;;;;0.52;0.40;;;17.70;51.40;;;;;;5035180;28;20033;-67
2023/06/03 06:54:52;;;;;;;0.22;0.22;;;17.80;51.40;;;;;;5034011;28;20029;-68
2023/06/03 06:57:20;;;;;;;0.35;0.35;;;17.90;51.20;;;;;;5030007;28;20757;-63
2023/06/03 06:59:46;;;;;;;0.30;0.30;;;18.00;50.90;;;;;;5029198;28;20037;-63
2023/06/03 07:02:11;;;;;;;0.20;0.20;;;18.10;50.90;;;;;;5029385;28;20525;-61
2023/06/03 07:04:37;;;;;;;0.32;0.32;;;18.10;50.80;;;;;;5029217;28;20037;-62
2023/06/03 07:07:03;;;;;;;0.30;0.30;;;18.20;50.70;;;;;;5030500;28;20029;-62
2023/06/03 07:09:29;;;;;;;0.30;0.20;;;18.30;50.50;;;;;;5027778;28;20396;-62
2023/06/03 07:11:54;;;;;;;1.38;0.88;;;18.40;50.30;;;;;;5030074;28;20032;-62
2023/06/03 07:14:20;;;;;;;0.43;0.43;;;18.40;50.30;;;;;;5027769;28;20028;-64
2023/06/03 07:16:48;;;;;;;0.20;0.20;;;18.50;50.10;;;;;;5030421;28;20521;-65
2023/06/03 07:19:13;;;;;;;0.22;0.22;;;18.60;49.80;;;;;;5022245;28;20033;-65
2023/06/03 07:21:39;;;;;;;0.50;0.50;;;18.70;49.90;;;;;;5029709;28;20144;-65
2023/06/03 07:24:07;;;;;;;0.40;0.40;;;18.80;49.70;;;;;;5020901;28;20575;-65
2023/06/03 07:26:33;;;;;;;0.30;0.30;;;18.90;49.60;;;;;;5031411;28;20025;-64
2023/06/03 07:29:00;;;;;;;0.40;0.40;;;18.90;49.30;;;;;;5032663;28;20017;-65
2023/06/03 07:31:29;;;;;;;0.77;0.40;;;19.00;49.20;;;;;;5031153;28;20147;-63
2023/06/03 07:33:57;;;;;;;0.55;0.40;;;19.10;49.20;;;;;;5029090;28;20039;-63
2023/06/03 07:36:26;;;;;;;0.40;0.40;;;19.20;49.20;;;;;;5032665;28;20035;-64
2023/06/03 07:39:13;;;;;;;1.45;0.20;;;19.20;48.70;;;;;;5033100;28;20101;-63
2023/06/03 07:41:45;;;;;;;1.58;0.32;;;19.40;48.80;;;;;;5022937;28;20029;-63
2023/06/03 07:44:13;;;;;;;1.50;0.77;;;19.40;48.60;;;;;;5031796;28;20388;-63
2023/06/03 07:46:52;;;;;;;0.45;0.20;;;19.50;48.50;;;;;;5022112;28;20025;-62
2023/06/03 07:49:19;;;;;;;0.40;0.40;;;19.60;48.20;;;;;;5024911;28;20117;-62
2023/06/03 07:51:47;;;;;;;0.75;0.40;;;19.60;48.00;;;;;;5025444;28;20069;-63
2023/06/03 07:54:14;;;;;;;1.08;0.45;;;19.70;47.70;;;;;;5029171;28;20025;-63
2023/06/03 07:56:40;;;;;;;0.20;0.20;;;19.70;47.50;;;;;;5029835;28;20018;-63
2023/06/03 07:59:10;;;;;;;0.20;0.20;;;19.80;47.70;;;;;;5023739;28;20132;-63
2023/06/03 08:01:36;;;;;;;0.47;0.40;;;19.90;47.40;;;;;;5029558;28;20029;-63
2023/06/03 08:04:26;;;;;;;0.20;0.20;;;19.90;47.30;;;;;;5029768;28;20079;-63
2023/06/03 08:06:53;;;;;;;0.20;0.20;;;20.00;47.30;;;;;;5028360;28;20041;-62
2023/06/03 08:09:27;;;;;;;0.30;0.30;;;20.10;46.90;;;;;;5035070;28;20025;-63
2023/06/03 08:11:54;;;;;;;0.20;0.20;;;20.20;46.80;;;;;;5027461;28;20024;-62
2023/06/03 08:14:21;;;;;;;4.15;0.63;;;20.30;46.70;;;;;;5032406;28;20022;-63
2023/06/03 08:16:47;;;;;;;0.30;0.20;;;20.40;46.40;;;;;;5030319;28;20029;-63
2023/06/03 08:19:16;;;;;;;0.25;0.20;;;20.50;46.10;;;;;;5028213;28;20381;-63
2023/06/03 08:21:44;;;;;;;0.20;0.20;;;20.70;46.10;;;;;;5031053;28;20123;-64
2023/06/03 08:24:10;;;;;;;1.08;0.20;;;20.80;45.70;;;;;;5023977;28;20068;-62
2023/06/03 08:26:38;;;;;;;2.58;0.30;;;20.90;45.50;;;;;;5028277;28;20131;-62
2023/06/03 08:29:04;;;;;;;0.20;0.20;;;20.90;44.80;;;;;;5022207;28;20030;-63
2023/06/03 08:31:33;;;;;;;1.65;0.40;;;21.00;44.40;;;;;;5029431;28;20041;-63
2023/06/03 08:34:01;;;;;;;0.30;0.30;;;21.10;44.20;;;;;;5026908;28;20404;-63
2023/06/03 08:36:26;;;;;;;0.55;0.30;;;21.10;43.60;;;;;;5029953;28;20446;-63
2023/06/03 08:38:52;;;;;;;0.20;0.20;;;21.20;43.50;;;;;;5024799;28;20109;-64
2023/06/03 08:41:18;;;;;;;0.20;0.20;;;21.20;43.10;;;;;;5031100;28;20022;-64
2023/06/03 08:43:50;;;;;;;0.20;0.20;;;21.20;42.70;;;;;;5030106;28;20083;-63
2023/06/03 08:46:26;;;;;;;0.35;0.25;;;21.30;42.40;;;;;;5030522;28;20025;-63
2023/06/03 08:49:03;;;;;;;0.40;0.40;;;21.30;41.90;;;;;;5029647;28;20041;-64
2023/06/03 08:51:36;;;;;;;0.52;0.10;;;21.30;41.80;;;;;;5030288;28;20025;-63
2023/06/03 08:54:11;;;;;;;0.30;0.22;;;21.30;41.60;;;;;;5029413;28;20045;-62
2023/06/03 08:56:41;;;;;;;0.22;0.10;;;21.40;41.70;;;;;;5030011;28;20124;-64
2023/06/03 08:59:10;;;;;;;0.20;0.20;;;21.50;41.60;;;;;;5028034;28;20036;-64
2023/06/03 09:01:39;;;;;;;0.30;0.20;;;21.60;42.20;;;;;;5026094;28;20029;-63
2023/06/03 09:04:04;;;;;;;1.17;0.75;;;21.70;41.50;;;;;;5035882;28;20029;-67
2023/06/03 09:06:31;;;;;;;0.20;0.20;;;21.70;40.70;;;;;;5028676;28;20037;-66
2023/06/03 09:08:57;;;;;;;0.85;0.43;;;21.70;40.30;;;;;;5040529;28;20044;-66
2023/06/03 09:11:25;;;;;;;0.20;0.20;;;21.80;40.90;;;;;;5036028;28;20117;-64
2023/06/03 09:13:52;;;;;;;2.63;0.22;;;21.80;39.60;;;;;;5040169;28;20083;-61
2023/06/03 09:16:19;;;;;;;0.20;0.20;;;21.90;39.80;;;;;;5038176;28;20034;-61
2023/06/03 09:18:45;;;;;;;0.20;0.20;;;22.00;38.80;;;;;;5038433;28;20028;-64
2023/06/03 09:21:10;;;;;;;0.30;0.28;;;22.00;38.50;;;;;;5028638;28;20116;-62
2023/06/03 09:23:40;;;;;;;0.20;0.20;;;22.10;38.50;;;;;;5042967;28;20540;-64
2023/06/03 09:26:06;;;;;;;0.30;0.30;;;22.20;38.50;;;;;;5036250;28;20061;-64
2023/06/03 09:28:34;;;;;;;0.20;0.20;;;22.30;38.20;;;;;;5037977;28;20028;-65
2023/06/03 09:31:00;;;;;;;0.40;0.40;;;22.40;37.80;;;;;;5038817;28;20025;-65
2023/06/03 09:33:26;;;;;;;0.10;0.10;;;22.50;37.80;;;;;;5042411;28;20051;-66
2023/06/03 09:36:15;;;;;;;0.22;0.22;;;22.60;37.60;;;;;;5041041;28;20469;-62
2023/06/03 09:38:52;;;;;;;0.30;0.30;;;22.70;38.50;;;;;;5014746;28;20423;-64
2023/06/03 09:41:26;;;;;;;0.30;0.30;;;22.90;37.70;;;;;;5037080;28;20049;-63
2023/06/03 09:44:01;;;;;;;0.20;0.20;;;23.00;37.90;;;;;;5038008;28;20026;-64
2023/06/03 09:46:30;;;;;;;0.20;0.20;;;23.10;37.90;;;;;;5033108;28;20380;-63
2023/06/03 09:49:09;;;;;;;0.30;0.30;;;23.20;37.70;;;;;;5032507;28;20025;-64
2023/06/03 09:51:43;;;;;;;2.05;0.20;;;23.30;36.80;;;;;;5037271;28;20029;-63
2023/06/03 09:54:11;;;;;;;0.52;0.30;;;23.40;36.30;;;;;;5037407;28;20025;-64
2023/06/03 09:56:36;;;;;;;0.32;0.32;;;23.40;36.20;;;;;;5031082;28;20104;-64
2023/06/03 09:59:16;;;;;;;0.25;0.10;;;23.40;36.10;;;;;;5034437;28;20164;-63
2023/06/03 10:01:45;;;;;;;0.20;0.20;;;23.50;36.00;;;;;;5029744;28;20021;-64
2023/06/03 10:04:11;;;;;;;0.40;0.40;;;23.50;35.60;;;;;;5032652;28;20021;-65
2023/06/03 10:06:38;;;;;;;0.20;0.20;;;23.60;35.60;;;;;;5032987;28;20037;-64
2023/06/03 10:09:21;;;;;;;0.45;0.45;;;23.60;34.90;;;;;;5023955;28;20044;-65
2023/06/03 10:11:51;;;;;;;0.90;0.20;;;23.70;35.00;;;;;;5028791;28;20045;-64
2023/06/03 10:14:22;;;;;;;0.40;0.40;;;23.70;34.70;;;;;;5031129;28;20560;-63
2023/06/03 10:17:09;;;;;;;0.22;0.22;;;23.70;34.30;;;;;;5028181;28;20376;-64
2023/06/03 10:19:37;;;;;;;0.38;0.30;;;23.80;34.90;;;;;;5057239;28;20025;-64
2023/06/03 10:22:04;;;;;;;1.38;0.30;;;23.80;34.90;;;;;;5030149;28;20033;-64
2023/06/03 10:24:31;;;;;;;0.30;0.30;;;24.00;33.70;;;;;;5037626;28;20060;-64
2023/06/03 10:26:57;;;;;;;0.20;0.20;;;24.00;33.70;;;;;;5038310;28;20221;-64
2023/06/03 10:29:25;;;;;;;0.45;0.30;;;24.10;33.50;;;;;;5037384;28;20021;-64
2023/06/03 10:31:54;;;;;;;0.20;0.20;;;24.20;33.10;;;;;;5037271;28;20559;-64
2023/06/03 10:34:20;;;;;;;0.20;0.20;;;24.30;33.40;;;;;;5031552;28;20017;-64
2023/06/03 10:36:56;;;;;;;0.52;0.40;;;24.40;33.20;;;;;;5027881;28;20044;-65
2023/06/03 10:39:24;;;;;;;0.40;0.40;;;24.50;32.90;;;;;;5028253;28;20104;-64
2023/06/03 10:41:54;;;;;;;0.52;0.40;;;24.60;32.30;;;;;;5040983;28;20113;-64
2023/06/03 10:44:20;;;;;;;0.43;0.43;;;24.70;32.40;;;;;;5042233;28;20021;-64
2023/06/03 10:47:10;;;;;;;0.28;0.28;;;24.70;32.30;;;;;;5038002;28;20811;-64
2023/06/03 10:50:10;;;;;;;0.32;0.32;;;24.90;32.80;;;;;;5026458;28;20025;-64
2023/06/03 10:53:12;;;;;;;0.40;0.40;;;25.00;32.10;;;;;;5028371;28;20099;-64
2023/06/03 10:56:05;;;;;;;1.63;0.30;;;25.10;31.90;;;;;;5026529;28;20057;-64
2023/06/03 10:58:31;;;;;;;0.30;0.30;;;25.20;32.10;;;;;;5029365;28;20026;-63
2023/06/03 11:01:01;;;;;;;0.15;0.13;;;25.20;31.50;;;;;;5021967;28;20108;-64
2023/06/03 11:03:29;;;;;;;0.25;0.25;;;25.30;31.80;;;;;;5030271;28;20115;-64
2023/06/03 11:06:21;;;;;;;0.20;0.20;;;25.40;31.60;;;;;;5030866;28;20026;-64
2023/06/03 11:09:08;;;;;;;0.50;0.50;;;25.40;31.40;;;;;;5018745;28;20056;-64
2023/06/03 11:11:47;;;;;;;0.20;0.20;;;25.50;31.70;;;;;;5023730;28;20034;-64
2023/06/03 11:14:38;;;;;;;0.20;0.20;;;25.60;32.40;;;;;;5031063;28;20037;-64
2023/06/03 11:17:03;;;;;;;0.30;0.30;;;25.70;31.60;;;;;;5023564;28;20042;-64
2023/06/03 11:19:38;;;;;;;1.10;0.28;;;25.80;31.60;;;;;;5022633;28;20041;-64
2023/06/03 11:22:07;;;;;;;0.30;0.30;;;25.80;31.80;;;;;;5021464;28;20040;-64
2023/06/03 11:24:39;;;;;;;0.55;0.40;;;25.90;31.10;;;;;;5029270;28;20022;-64
2023/06/03 11:27:13;;;;;;;;;;;25.90;31.10;;;;;;5027667;28;20044;-64
2023/06/03 11:29:56;;;;;;;0.20;0.20;;;26.00;31.50;;;;;;5030965;28;20085;-64
2023/06/03 11:32:27;;;;;;;0.30;0.30;;;26.10;31.60;;;;;;5032100;28;20053;-64
2023/06/03 11:35:26;;;;;;;0.45;0.45;;;26.20;31.60;;;;;;5030793;28;20036;-64
2023/06/03 11:37:53;;;;;;;0.38;0.30;;;26.30;31.60;;;;;;5026645;28;20053;-65
2023/06/03 11:40:20;;;;;;;0.20;0.20;;;26.40;31.40;;;;;;5019149;28;20143;-65
2023/06/03 11:42:53;;;;;;;0.20;0.20;;;26.50;31.30;;;;;;5024744;28;20030;-65
2023/06/03 11:45:19;;;;;;;1.63;0.40;;;26.50;31.80;;;;;;5023551;28;20037;-64
2023/06/03 11:47:51;;;;;;;0.30;0.30;;;26.50;31.10;;;;;;5028540;28;20014;-65
2023/06/03 11:50:18;;;;;;;1.63;0.52;;;26.60;31.30;;;;;;5031132;28;20135;-64
2023/06/03 11:52:43;;;;;;;0.30;0.30;;;26.70;31.40;;;;;;5040137;28;20279;-64
2023/06/03 11:55:09;;;;;;;4.53;0.40;;;26.90;31.60;;;;;;5034018;28;20045;-65
2023/06/03 11:57:35;;;;;;;0.77;0.55;;;27.00;31.20;;;;;;5035340;28;20753;-64
2023/06/03 12:00:08;;;;;;;0.30;0.30;;;27.10;31.40;;;;;;5030250;28;20022;-64
2023/06/03 12:02:40;;;;;;;2.13;0.40;;;27.10;31.60;;;;;;5032917;28;20024;-64
2023/06/03 12:05:07;;;;;;;0.40;0.40;;;27.20;32.20;;;;;;5033206;28;20021;-65
2023/06/03 12:07:33;;;;;;;0.40;0.40;;;27.20;31.20;;;;;;5033650;28;20036;-64
2023/06/03 12:10:00;;;;;;;0.28;0.28;;;27.30;30.80;;;;;;5032356;28;20074;-64
2023/06/03 12:12:25;;;;;;;1.23;0.40;;;27.30;30.70;;;;;;5034733;28;20477;-64
2023/06/03 12:14:51;;;;;;;0.20;0.20;;;27.40;30.80;;;;;;5028495;28;20033;-64
2023/06/03 12:17:19;;;;;;;0.28;0.28;;;27.50;30.70;;;;;;5016529;28;20121;-64
2023/06/03 12:19:47;;;;;;;0.30;0.30;;;27.50;30.10;;;;;;5022263;28;20347;-64
2023/06/03 12:22:13;;;;;;;0.55;0.32;;;27.50;30.30;;;;;;5021600;28;20022;-64
2023/06/03 12:24:42;;;;;;;0.28;0.28;;;27.60;30.30;;;;;;5018051;28;20037;-64
2023/06/03 12:27:26;;;;;;;0.38;0.38;;;27.60;30.50;;;;;;5019519;28;20354;-64
2023/06/03 12:29:54;;;;;;;1.05;0.30;;;27.80;30.60;;;;;;5016432;28;20099;-64
2023/06/03 12:32:22;;;;;;;0.40;0.40;;;27.90;30.00;;;;;;5026280;28;20180;-65
2023/06/03 12:34:48;;;;;;;0.73;0.32;;;27.90;30.20;;;;;;5023623;28;20065;-64
2023/06/03 12:37:30;;;;;;;0.47;0.47;;;27.90;29.90;;;;;;5032146;28;20123;-64
2023/06/03 12:39:57;;;;;;;0.22;0.22;;;27.90;29.90;;;;;;5021683;28;20394;-64
2023/06/03 12:42:44;;;;;;;0.35;0.20;;;27.90;29.90;;;;;;5032476;28;20039;-65
2023/06/03 12:45:10;;;;;;;0.63;0.63;;;28.00;30.00;;;;;;5028981;28;20042;-65
2023/06/03 12:47:46;;;;;;;0.30;0.30;;;28.10;29.80;;;;;;5028285;28;20026;-64
2023/06/03 12:50:13;;;;;;;1.13;0.47;;;28.10;29.50;;;;;;5043222;28;20029;-65
2023/06/03 12:52:39;;;;;;;0.30;0.30;;;28.10;29.30;;;;;;5029966;28;20063;-65
2023/06/03 12:55:07;;;;;;;1.38;0.93;;;28.10;29.60;;;;;;5032839;28;20033;-64
2023/06/03 12:57:34;;;;;;;0.35;0.30;;;28.30;29.80;;;;;;5034762;28;20119;-65